createdAt,value
2023-05-18T00:01:20.374Z,8.72
2023-05-18T00:03:48.436Z,8.59
2023-05-18T00:06:16.351Z,8.67
2023-05-18T00:08:44.173Z,8.49
2023-05-18T00:11:12.328Z,8.61
2023-05-18T00:13:40.348Z,8.69
2023-05-18T00:16:08.388Z,8.67
2023-05-18T00:18:37.633Z,8.74
2023-05-18T00:21:06.426Z,8.84
2023-05-18T00:23:34.277Z,8.75
2023-05-18T00:26:03.434Z,8.83
2023-05-18T00:28:31.253Z,8.78
2023-05-18T00:31:00.470Z,8.66
2023-05-18T00:33:28.279Z,8.60
2023-05-18T00:35:57.894Z,8.46
2023-05-18T00:38:26.212Z,8.47
2023-05-18T00:40:54.052Z,8.41
2023-05-18T00:43:21.801Z,8.20
2023-05-18T00:45:49.632Z,8.42
2023-05-18T00:48:17.500Z,8.22
2023-05-18T00:50:45.524Z,8.16
2023-05-18T00:53:14.653Z,8.12
2023-05-18T00:55:42.626Z,8.15
2023-05-18T00:58:10.897Z,8.06
2023-05-18T01:00:38.883Z,8.07
2023-05-18T01:03:10.558Z,8.08
2023-05-18T01:05:38.554Z,8.10
2023-05-18T01:08:06.731Z,7.93
2023-05-18T01:10:40.698Z,7.87
2023-05-18T01:13:14.227Z,7.97
2023-05-18T01:15:42.925Z,7.94
2023-05-18T01:18:16.433Z,8.00
2023-05-18T01:20:48.480Z,8.02
2023-05-18T01:23:29.725Z,8.27
2023-05-18T01:26:15.502Z,8.30
2023-05-18T01:28:46.310Z,8.40
2023-05-18T01:31:16.451Z,8.47
2023-05-18T01:33:44.695Z,8.41
2023-05-18T01:36:12.859Z,8.43
2023-05-18T01:38:44.195Z,8.44
2023-05-18T01:41:22.492Z,8.44
2023-05-18T01:43:55.772Z,8.47
2023-05-18T01:46:33.874Z,8.44
2023-05-18T01:49:06.571Z,8.34
2023-05-18T01:51:38.958Z,8.34
2023-05-18T01:54:09.339Z,8.14
2023-05-18T01:56:39.990Z,8.18
2023-05-18T01:59:08.098Z,8.20
2023-05-18T02:01:36.446Z,8.25
2023-05-18T02:04:08.641Z,8.14
2023-05-18T02:06:37.044Z,8.28
2023-05-18T02:09:05.492Z,8.25
2023-05-18T02:11:33.341Z,8.28
2023-05-18T02:14:02.661Z,8.36
2023-05-18T02:16:30.567Z,8.32
2023-05-18T02:19:00.514Z,8.39
2023-05-18T02:21:28.385Z,8.32
2023-05-18T02:23:56.255Z,8.23
2023-05-18T02:26:24.086Z,8.07
2023-05-18T02:28:51.918Z,8.15
2023-05-18T02:31:21.435Z,8.02
2023-05-18T02:33:49.257Z,7.86
2023-05-18T02:36:18.649Z,7.67
2023-05-18T02:38:46.568Z,7.66
2023-05-18T02:41:14.650Z,7.58
2023-05-18T02:43:42.371Z,7.67
2023-05-18T02:46:10.233Z,7.55
2023-05-18T02:48:39.547Z,7.39
2023-05-18T02:51:07.432Z,7.27
2023-05-18T02:53:35.293Z,7.15
2023-05-18T02:56:04.275Z,7.16
2023-05-18T02:58:32.207Z,7.14
2023-05-18T03:01:00.959Z,6.97
2023-05-18T03:03:28.908Z,6.77
2023-05-18T03:05:58.404Z,6.77
2023-05-18T03:08:27.135Z,6.66
2023-05-18T03:10:55.325Z,6.58
2023-05-18T03:13:23.174Z,6.64
2023-05-18T03:15:51.931Z,6.66
2023-05-18T03:18:20.162Z,6.59
2023-05-18T03:20:49.938Z,6.74
2023-05-18T03:23:19.108Z,6.90
2023-05-18T03:25:46.955Z,6.99
2023-05-18T03:28:14.741Z,7.00
2023-05-18T03:30:42.525Z,7.19
2023-05-18T03:33:10.559Z,7.30
2023-05-18T03:35:39.675Z,7.40
2023-05-18T03:38:08.022Z,7.67
2023-05-18T03:40:37.350Z,7.77
2023-05-18T03:43:05.385Z,7.90
2023-05-18T03:45:33.536Z,7.98
2023-05-18T03:48:01.381Z,8.03
2023-05-18T03:50:29.726Z,8.08
2023-05-18T03:52:57.546Z,8.16
2023-05-18T03:55:26.314Z,8.24
2023-05-18T03:57:55.641Z,8.22
2023-05-18T04:00:23.475Z,8.28
2023-05-18T04:02:52.165Z,8.25
2023-05-18T04:05:20.792Z,8.40
2023-05-18T04:07:49.996Z,8.44
2023-05-18T04:10:19.920Z,8.46
2023-05-18T04:12:47.923Z,8.44
2023-05-18T04:15:17.046Z,8.55
2023-05-18T04:17:45.803Z,8.65
2023-05-18T04:20:14.716Z,8.46
2023-05-18T04:22:46.584Z,8.69
2023-05-18T04:25:15.493Z,8.70
2023-05-18T04:27:45.587Z,8.76
2023-05-18T04:30:14.502Z,8.67
2023-05-18T04:32:43.805Z,8.89
2023-05-18T04:35:12.655Z,8.88
2023-05-18T04:37:41.451Z,8.97
2023-05-18T04:40:13.470Z,9.13
2023-05-18T04:42:45.608Z,9.32
2023-05-18T04:45:16.101Z,9.39
2023-05-18T04:47:46.861Z,9.57
2023-05-18T04:50:16.649Z,9.56
2023-05-18T04:52:47.997Z,9.20
2023-05-18T04:55:20.106Z,9.43
2023-05-18T04:57:47.712Z,9.77
2023-05-18T05:00:16.527Z,9.57
2023-05-18T05:02:46.136Z,9.61
2023-05-18T05:05:13.994Z,9.76
2023-05-18T05:07:41.829Z,9.91
2023-05-18T05:10:10.655Z,9.76
2023-05-18T05:12:39.118Z,9.95
2023-05-18T05:15:08.201Z,10.25
2023-05-18T05:17:36.040Z,10.25
2023-05-18T05:20:06.032Z,9.89
2023-05-18T05:22:33.874Z,9.92
2023-05-18T05:25:02.217Z,9.96
2023-05-18T05:27:31.159Z,10.30
2023-05-18T05:29:58.972Z,10.38
2023-05-18T05:32:27.094Z,10.55
2023-05-18T05:34:54.927Z,10.64
2023-05-18T05:37:24.135Z,10.80
2023-05-18T05:39:51.923Z,10.93
2023-05-18T05:42:19.874Z,10.68
2023-05-18T05:44:47.730Z,10.26
2023-05-18T05:47:15.613Z,10.51
2023-05-18T05:49:43.902Z,10.17
2023-05-18T05:52:11.667Z,10.37
2023-05-18T05:54:41.958Z,10.33
2023-05-18T05:57:09.710Z,10.56
2023-05-18T05:59:37.520Z,10.40
2023-05-18T06:02:05.720Z,10.51
2023-05-18T06:04:33.760Z,10.47
2023-05-18T06:07:01.745Z,10.43
2023-05-18T06:09:29.536Z,10.75
2023-05-18T06:11:58.849Z,10.82
2023-05-18T06:14:27.025Z,10.86
2023-05-18T06:16:54.836Z,10.84
2023-05-18T06:19:22.796Z,10.75
2023-05-18T06:21:50.865Z,10.60
2023-05-18T06:24:18.627Z,10.55
2023-05-18T06:26:46.393Z,10.90
2023-05-18T06:29:16.002Z,10.95
2023-05-18T06:31:44.152Z,10.95
2023-05-18T06:34:12.064Z,10.35
2023-05-18T06:36:40.075Z,10.50
2023-05-18T06:39:08.200Z,10.76
2023-05-18T06:41:36.060Z,10.80
2023-05-18T06:44:04.258Z,10.87
2023-05-18T06:46:33.436Z,10.53
2023-05-18T06:49:01.344Z,10.58
2023-05-18T06:51:29.240Z,10.44
2023-05-18T06:53:57.043Z,10.92
2023-05-18T06:56:24.993Z,11.08
2023-05-18T06:58:52.798Z,11.06
2023-05-18T07:01:20.726Z,11.63
2023-05-18T07:03:50.119Z,11.48
2023-05-18T07:06:17.986Z,12.15
2023-05-18T07:08:47.281Z,12.99
2023-05-18T07:11:15.516Z,12.73
2023-05-18T07:13:43.658Z,12.61
2023-05-18T07:16:11.592Z,12.83
2023-05-18T07:18:39.813Z,13.11
2023-05-18T07:21:09.206Z,12.74
2023-05-18T07:23:37.124Z,12.16
2023-05-18T07:26:05.013Z,12.03
2023-05-18T07:28:33.040Z,12.29
2023-05-18T07:31:01.085Z,11.91
2023-05-18T07:33:28.868Z,12.14
2023-05-18T07:35:56.866Z,12.34
2023-05-18T07:38:26.243Z,12.34
2023-05-18T07:40:54.108Z,12.20
2023-05-18T07:43:21.863Z,12.28
2023-05-18T07:45:49.577Z,12.14
2023-05-18T07:48:17.438Z,12.21
2023-05-18T07:50:45.267Z,12.20
2023-05-18T07:53:13.096Z,12.31
2023-05-18T07:55:43.228Z,12.85
2023-05-18T07:58:11.202Z,13.12
2023-05-18T08:00:39.078Z,13.59
2023-05-18T08:03:08.680Z,14.09
2023-05-18T08:05:36.587Z,14.99
2023-05-18T08:08:06.827Z,14.50
2023-05-18T08:10:34.902Z,14.49
2023-05-18T08:13:04.079Z,14.84
2023-05-18T08:15:32.144Z,16.48
2023-05-18T08:18:00.203Z,15.93
2023-05-18T08:20:30.495Z,16.23
2023-05-18T08:22:58.643Z,16.72
2023-05-18T08:25:26.547Z,15.85
2023-05-18T08:27:54.678Z,14.61
2023-05-18T08:30:24.106Z,15.90
2023-05-18T08:32:52.067Z,15.29
2023-05-18T08:35:20.056Z,14.88
2023-05-18T08:37:47.870Z,14.62
2023-05-18T08:40:15.782Z,14.27
2023-05-18T08:42:50.772Z,15.95
2023-05-18T08:45:31.356Z,16.89
2023-05-18T08:48:02.091Z,15.60
2023-05-18T08:50:33.760Z,14.97
2023-05-18T08:53:03.026Z,14.40
2023-05-18T08:55:34.741Z,14.15
2023-05-18T08:58:03.288Z,14.06
2023-05-18T09:00:34.403Z,13.95
2023-05-18T09:03:03.763Z,14.05
2023-05-18T09:05:32.338Z,13.70
2023-05-18T09:08:00.788Z,13.62
2023-05-18T09:10:29.306Z,13.97
2023-05-18T09:12:58.510Z,14.14
2023-05-18T09:15:27.276Z,14.05
2023-05-18T09:17:56.514Z,13.96
2023-05-18T09:20:26.759Z,13.78
2023-05-18T09:22:55.116Z,13.52
2023-05-18T09:25:24.933Z,13.15
2023-05-18T09:27:55.809Z,13.33
2023-05-18T09:30:25.676Z,13.50
2023-05-18T09:32:54.252Z,13.72
2023-05-18T09:35:26.286Z,13.78
2023-05-18T09:37:54.674Z,13.51
2023-05-18T09:40:29.768Z,13.47
2023-05-18T09:42:57.528Z,13.17
2023-05-18T09:45:26.716Z,13.43
2023-05-18T09:47:55.582Z,13.88
2023-05-18T09:50:25.682Z,13.68
2023-05-18T09:52:53.671Z,13.81
2023-05-18T09:55:21.859Z,13.88
2023-05-18T09:57:51.253Z,13.98
2023-05-18T10:00:23.558Z,13.84
2023-05-18T10:02:53.507Z,13.95
2023-05-18T10:05:22.187Z,13.78
2023-05-18T10:07:52.089Z,13.54
2023-05-18T10:10:21.734Z,13.49
2023-05-18T10:12:52.013Z,13.78
2023-05-18T10:15:21.674Z,13.63
2023-05-18T10:17:51.229Z,13.76
2023-05-18T10:20:20.935Z,14.32
2023-05-18T10:22:51.581Z,14.36
2023-05-18T10:25:21.701Z,14.72
2023-05-18T10:27:50.764Z,14.99
2023-05-18T10:30:18.789Z,15.40
2023-05-18T10:32:47.330Z,15.90
2023-05-18T10:35:15.942Z,18.02
2023-05-18T10:37:48.672Z,17.09
2023-05-18T10:40:18.653Z,16.62
2023-05-18T10:42:47.486Z,15.46
2023-05-18T10:45:16.775Z,15.14
2023-05-18T10:47:45.300Z,14.55
2023-05-18T10:50:17.007Z,14.67
2023-05-18T10:52:46.243Z,14.61
2023-05-18T10:55:14.530Z,14.42
2023-05-18T10:57:47.568Z,14.16
2023-05-18T11:00:16.413Z,14.08
2023-05-18T11:02:45.041Z,14.38
2023-05-18T11:05:13.789Z,14.82
2023-05-18T11:07:41.799Z,15.34
2023-05-18T11:10:11.587Z,16.12
2023-05-18T11:12:41.537Z,15.79
2023-05-18T11:15:12.003Z,16.27
2023-05-18T11:17:40.168Z,16.15
2023-05-18T11:20:17.442Z,15.99
2023-05-18T11:22:51.328Z,15.69
2023-05-18T11:25:39.061Z,16.15
2023-05-18T11:28:08.908Z,15.95
2023-05-18T11:30:51.917Z,15.53
2023-05-18T11:33:25.664Z,15.43
2023-05-18T11:36:07.164Z,15.35
2023-05-18T11:38:53.784Z,15.14
2023-05-18T11:41:29.871Z,15.13
2023-05-18T11:44:06.866Z,14.80
2023-05-18T11:46:36.267Z,14.74
2023-05-18T11:49:05.824Z,14.99
2023-05-18T11:51:34.119Z,15.34
2023-05-18T11:54:02.172Z,15.37
2023-05-18T11:56:34.355Z,15.16
2023-05-18T11:59:16.149Z,15.15
2023-05-18T12:01:45.489Z,15.11
2023-05-18T12:04:13.769Z,15.20
2023-05-18T12:06:42.067Z,15.08
2023-05-18T12:09:10.487Z,15.43
2023-05-18T12:11:39.072Z,15.31
2023-05-18T12:14:07.500Z,15.27
2023-05-18T12:16:37.811Z,15.16
2023-05-18T12:19:08.137Z,15.22
2023-05-18T12:21:37.271Z,15.12
2023-05-18T12:24:05.930Z,15.07
2023-05-18T12:26:34.133Z,15.24
2023-05-18T12:29:02.869Z,15.28
2023-05-18T12:31:31.719Z,15.40
2023-05-18T12:34:03.005Z,15.56
2023-05-18T12:36:33.736Z,15.40
2023-05-18T12:39:02.555Z,15.70
2023-05-18T12:41:30.343Z,15.53
2023-05-18T12:43:58.505Z,15.88
2023-05-18T12:46:26.528Z,15.58
2023-05-18T12:49:01.698Z,15.75
2023-05-18T12:51:35.466Z,15.64
2023-05-18T12:54:03.982Z,15.98
2023-05-18T12:56:53.317Z,16.29
2023-05-18T12:59:21.855Z,16.13
2023-05-18T13:01:50.155Z,15.88
2023-05-18T13:04:18.258Z,16.54
2023-05-18T13:06:48.517Z,15.81
2023-05-18T13:09:16.769Z,16.29
2023-05-18T13:12:03.943Z,15.72
2023-05-18T13:14:39.177Z,15.86
2023-05-18T13:17:07.085Z,15.85
2023-05-18T13:19:36.700Z,15.95
2023-05-18T13:22:06.190Z,15.91
2023-05-18T13:24:34.160Z,15.32
2023-05-18T13:27:02.410Z,15.54
2023-05-18T13:29:30.568Z,15.42
2023-05-18T13:31:58.751Z,15.56
2023-05-18T13:34:26.459Z,15.35
2023-05-18T13:36:54.322Z,15.25
2023-05-18T13:39:23.479Z,15.32
2023-05-18T13:41:51.718Z,15.15
2023-05-18T13:44:19.646Z,15.36
2023-05-18T13:46:47.462Z,14.94
2023-05-18T13:49:15.256Z,15.10
2023-05-18T13:51:43.126Z,14.93
2023-05-18T13:54:10.912Z,15.20
2023-05-18T13:56:39.997Z,15.27
2023-05-18T13:59:07.837Z,15.41
2023-05-18T14:01:35.720Z,15.53
2023-05-18T14:04:03.712Z,15.43
2023-05-18T14:06:31.753Z,15.67
2023-05-18T14:08:59.489Z,15.60
2023-05-18T14:11:27.565Z,15.67
2023-05-18T14:13:56.882Z,15.46
2023-05-18T14:16:24.824Z,15.49
2023-05-18T14:18:52.682Z,15.17
2023-05-18T14:21:20.826Z,15.05
2023-05-18T14:23:48.726Z,15.12
2023-05-18T14:26:16.529Z,15.17
2023-05-18T14:28:44.350Z,15.08
2023-05-18T14:31:13.574Z,15.14
2023-05-18T14:33:41.543Z,15.33
2023-05-18T14:36:09.405Z,15.22
2023-05-18T14:38:37.285Z,15.32
2023-05-18T14:41:05.162Z,15.21
2023-05-18T14:43:33.013Z,15.48
2023-05-18T14:46:08.661Z,15.33
2023-05-18T14:48:38.662Z,15.19
2023-05-18T14:51:06.584Z,15.12
2023-05-18T14:53:34.470Z,14.82
2023-05-18T14:56:09.926Z,15.07
2023-05-18T14:58:38.126Z,15.10
2023-05-18T15:01:06.435Z,14.81
2023-05-18T15:03:34.400Z,14.99
2023-05-18T15:06:03.679Z,14.93
2023-05-18T15:08:31.741Z,14.81
2023-05-18T15:10:59.922Z,14.80
2023-05-18T15:13:27.772Z,14.77
2023-05-18T15:15:55.749Z,14.63
2023-05-18T15:18:23.679Z,14.82
2023-05-18T15:20:51.557Z,14.86
2023-05-18T15:23:21.634Z,14.79
2023-05-18T15:25:51.438Z,14.84
2023-05-18T15:28:19.412Z,14.84
2023-05-18T15:30:47.299Z,14.78
2023-05-18T15:33:15.290Z,14.95
2023-05-18T15:35:43.068Z,14.86
2023-05-18T15:38:11.094Z,14.92
2023-05-18T15:40:41.792Z,14.90
2023-05-18T15:43:09.527Z,14.88
2023-05-18T15:45:37.532Z,14.92
2023-05-18T15:48:05.717Z,14.93
2023-05-18T15:50:33.623Z,14.96
2023-05-18T15:53:01.457Z,14.90
2023-05-18T15:55:29.362Z,14.83
2023-05-18T15:57:58.980Z,14.98
2023-05-18T16:00:26.750Z,15.03
2023-05-18T16:02:54.637Z,15.21
2023-05-18T16:05:22.468Z,15.11
2023-05-18T16:07:50.249Z,15.01
2023-05-18T16:10:18.565Z,15.01
2023-05-18T16:12:46.420Z,14.91
2023-05-18T16:15:16.037Z,14.80
2023-05-18T16:17:43.902Z,14.83
2023-05-18T16:20:14.130Z,14.65
2023-05-18T16:22:42.072Z,14.77
2023-05-18T16:25:10.855Z,14.87
2023-05-18T16:27:38.860Z,14.75
2023-05-18T16:30:07.991Z,14.81
2023-05-18T16:32:37.306Z,14.72
2023-05-18T16:35:05.770Z,14.53
2023-05-18T16:37:33.640Z,14.62
2023-05-18T16:40:01.496Z,14.61
2023-05-18T16:42:29.270Z,14.64
2023-05-18T16:44:57.081Z,14.49
2023-05-18T16:47:24.989Z,14.51
2023-05-18T16:49:54.208Z,14.61
2023-05-18T16:52:22.066Z,14.62
2023-05-18T16:54:49.923Z,14.69
2023-05-18T16:57:17.691Z,14.58
2023-05-18T16:59:45.523Z,14.61
2023-05-18T17:02:14.332Z,14.55
2023-05-18T17:04:44.613Z,14.73
2023-05-18T17:07:14.041Z,14.59
2023-05-18T17:09:42.707Z,14.60
2023-05-18T17:12:11.574Z,14.53
2023-05-18T17:14:39.789Z,14.34
2023-05-18T17:17:07.881Z,14.45
2023-05-18T17:19:36.222Z,14.48
2023-05-18T17:22:04.720Z,14.41
2023-05-18T17:24:33.848Z,14.46
2023-05-18T17:27:01.706Z,14.33
2023-05-18T17:29:29.646Z,14.16
2023-05-18T17:31:57.684Z,14.14
2023-05-18T17:34:27.303Z,14.13
2023-05-18T17:36:55.891Z,14.22
2023-05-18T17:39:23.812Z,13.97
2023-05-18T17:41:54.406Z,14.09
2023-05-18T17:44:22.308Z,14.11
2023-05-18T17:46:51.018Z,14.16
2023-05-18T17:49:19.318Z,14.09
2023-05-18T17:51:47.260Z,13.95
2023-05-18T17:54:15.036Z,14.03
2023-05-18T17:56:42.803Z,13.99
2023-05-18T17:59:11.964Z,13.99
2023-05-18T18:01:39.838Z,13.93
2023-05-18T18:04:07.837Z,13.91
2023-05-18T18:06:37.032Z,13.87
2023-05-18T18:09:06.109Z,13.85
2023-05-18T18:11:34.172Z,13.83
2023-05-18T18:14:02.227Z,13.83
2023-05-18T18:16:31.565Z,13.86
2023-05-18T18:18:59.445Z,13.85
2023-05-18T18:21:27.234Z,13.84
2023-05-18T18:23:55.112Z,13.79
2023-05-18T18:26:22.970Z,13.77
2023-05-18T18:28:51.219Z,13.67
2023-05-18T18:31:21.141Z,13.73
2023-05-18T18:33:51.332Z,13.68
2023-05-18T18:36:19.614Z,13.73
2023-05-18T18:38:47.460Z,13.59
2023-05-18T18:41:17.290Z,13.56
2023-05-18T18:43:45.716Z,13.61
2023-05-18T18:46:13.970Z,13.50
2023-05-18T18:48:41.772Z,13.45
2023-05-18T18:51:10.901Z,13.38
2023-05-18T18:53:38.841Z,13.39
2023-05-18T18:56:06.673Z,12.88
2023-05-18T18:58:34.469Z,13.38
2023-05-18T19:01:02.326Z,13.37
2023-05-18T19:03:30.075Z,13.39
2023-05-18T19:05:58.046Z,13.38
2023-05-18T19:08:27.293Z,13.41
2023-05-18T19:10:56.149Z,13.30
2023-05-18T19:13:23.922Z,13.33
2023-05-18T19:15:51.922Z,13.38
2023-05-18T19:18:19.741Z,13.30
2023-05-18T19:20:47.583Z,13.31
2023-05-18T19:23:15.500Z,13.33
2023-05-18T19:25:44.722Z,13.21
2023-05-18T19:28:12.517Z,13.35
2023-05-18T19:30:40.345Z,13.38
2023-05-18T19:33:08.206Z,13.33
2023-05-18T19:35:36.407Z,13.36
2023-05-18T19:38:04.160Z,13.39
2023-05-18T19:40:32.097Z,13.37
2023-05-18T19:43:01.632Z,13.34
2023-05-18T19:45:29.757Z,13.21
2023-05-18T19:47:58.156Z,13.33
2023-05-18T19:50:26.029Z,13.30
2023-05-18T19:52:53.934Z,13.33
2023-05-18T19:55:21.818Z,13.33
2023-05-18T19:57:49.670Z,13.30
2023-05-18T20:00:20.018Z,13.29
2023-05-18T20:02:47.917Z,13.20
2023-05-18T20:05:18.770Z,13.30
2023-05-18T20:07:46.843Z,13.37
2023-05-18T20:10:14.751Z,13.28
2023-05-18T20:12:42.741Z,13.17
2023-05-18T20:15:11.021Z,13.31
2023-05-18T20:17:40.311Z,13.28
2023-05-18T20:20:09.072Z,13.30
2023-05-18T20:22:37.039Z,13.26
2023-05-18T20:25:05.616Z,13.26
2023-05-18T20:27:33.523Z,13.17
2023-05-18T20:30:01.395Z,13.21
2023-05-18T20:32:29.347Z,13.17
2023-05-18T20:34:58.578Z,13.09
2023-05-18T20:37:26.540Z,13.06
2023-05-18T20:39:57.377Z,12.96
2023-05-18T20:42:31.198Z,13.01
2023-05-18T20:44:59.376Z,12.96
2023-05-18T20:47:27.343Z,13.00
2023-05-18T20:49:58.285Z,13.03
2023-05-18T20:52:27.617Z,13.04
2023-05-18T20:54:55.517Z,12.99
2023-05-18T20:57:24.082Z,12.97
2023-05-18T20:59:52.346Z,12.99
2023-05-18T21:02:20.372Z,13.02
2023-05-18T21:04:48.420Z,13.03
2023-05-18T21:07:16.569Z,12.99
2023-05-18T21:09:45.850Z,13.03
2023-05-18T21:12:13.638Z,13.02
2023-05-18T21:14:41.839Z,13.03
2023-05-18T21:17:09.819Z,13.00
2023-05-18T21:19:37.587Z,13.04
2023-05-18T21:22:05.815Z,13.04
2023-05-18T21:24:33.641Z,13.01
2023-05-18T21:27:02.997Z,13.01
2023-05-18T21:29:30.881Z,12.98
2023-05-18T21:31:58.746Z,12.83
2023-05-18T21:34:26.572Z,12.90
2023-05-18T21:36:54.413Z,12.91
2023-05-18T21:39:22.159Z,12.84
2023-05-18T21:41:50.196Z,12.86
2023-05-18T21:44:19.357Z,12.82
2023-05-18T21:46:47.145Z,12.87
2023-05-18T21:49:14.967Z,12.88
2023-05-18T21:51:42.800Z,12.73
2023-05-18T21:54:10.803Z,12.88
2023-05-18T21:56:38.811Z,12.80
2023-05-18T21:59:06.557Z,12.75
2023-05-18T22:01:35.851Z,12.65
2023-05-18T22:04:03.829Z,12.69
2023-05-18T22:06:31.741Z,12.69
2023-05-18T22:08:59.546Z,12.69
2023-05-18T22:11:27.377Z,12.61
2023-05-18T22:13:55.965Z,12.61
2023-05-18T22:16:23.803Z,12.62
2023-05-18T22:18:53.097Z,12.50
2023-05-18T22:21:21.162Z,12.64
2023-05-18T22:23:49.067Z,12.59
2023-05-18T22:26:16.928Z,12.64
2023-05-18T22:28:44.725Z,12.62
2023-05-18T22:31:12.496Z,12.59
2023-05-18T22:33:40.315Z,12.52
2023-05-18T22:36:09.915Z,12.59
2023-05-18T22:38:38.240Z,12.46
2023-05-18T22:41:06.107Z,12.49
2023-05-18T22:43:33.875Z,12.55
2023-05-18T22:46:02.034Z,12.33
2023-05-18T22:48:31.902Z,12.42
2023-05-18T22:51:00.774Z,12.37
2023-05-18T22:53:29.919Z,12.39
2023-05-18T22:55:59.050Z,12.33
2023-05-18T22:58:26.931Z,12.37
2023-05-18T23:00:54.807Z,12.37
2023-05-18T23:03:22.620Z,12.35
2023-05-18T23:05:51.017Z,12.34
2023-05-18T23:08:20.393Z,12.31
2023-05-18T23:10:50.718Z,12.32
2023-05-18T23:13:19.685Z,12.31
2023-05-18T23:15:47.846Z,12.34
2023-05-18T23:18:15.845Z,12.31
2023-05-18T23:20:43.661Z,12.28
2023-05-18T23:23:11.606Z,12.33
2023-05-18T23:25:39.762Z,12.29
2023-05-18T23:28:08.930Z,12.31
2023-05-18T23:30:36.783Z,12.28
2023-05-18T23:33:06.213Z,12.27
2023-05-18T23:35:36.233Z,12.26
2023-05-18T23:38:06.359Z,12.27
2023-05-18T23:40:34.793Z,12.27
2023-05-18T23:43:03.101Z,12.24
2023-05-18T23:45:33.023Z,12.20
2023-05-18T23:48:01.172Z,12.05
2023-05-18T23:50:29.712Z,12.01
2023-05-18T23:53:04.125Z,11.99
2023-05-18T23:55:34.844Z,12.04
2023-05-18T23:58:03.708Z,12.16
